sensor_id;sensor_type;location;lat;lon;timestamp;P1;durP1;ratioP1;P2;durP2;ratioP2
11139;SDS011;5624;49.388;11.350;2024-03-08T00:01:09;27.70;;;20.87;;
11139;SDS011;5624;49.388;11.350;2024-03-08T00:03:34;26.83;;;21.20;;
11139;SDS011;5624;49.388;11.350;2024-03-08T00:06:00;29.77;;;20.47;;
11139;SDS011;5624;49.388;11.350;2024-03-08T00:08:25;27.83;;;21.10;;
11139;SDS011;5624;49.388;11.350;2024-03-08T00:10:51;29.23;;;20.17;;
11139;SDS011;5624;49.388;11.350;2024-03-08T00:13:16;30.30;;;21.03;;
11139;SDS011;5624;49.388;11.350;2024-03-08T00:15:42;27.37;;;20.63;;
11139;SDS011;5624;49.388;11.350;2024-03-08T00:18:07;29.30;;;21.57;;
11139;SDS011;5624;49.388;11.350;2024-03-08T00:20:33;26.90;;;20.53;;
11139;SDS011;5624;49.388;11.350;2024-03-08T00:22:58;27.37;;;21.97;;
11139;SDS011;5624;49.388;11.350;2024-03-08T00:25:24;29.90;;;22.10;;
11139;SDS011;5624;49.388;11.350;2024-03-08T00:27:50;29.63;;;21.17;;
11139;SDS011;5624;49.388;11.350;2024-03-08T00:30:16;26.83;;;20.37;;
11139;SDS011;5624;49.388;11.350;2024-03-08T00:32:41;31.23;;;21.97;;
11139;SDS011;5624;49.388;11.350;2024-03-08T00:35:07;30.53;;;21.70;;
11139;SDS011;5624;49.388;11.350;2024-03-08T00:37:33;28.43;;;21.17;;
11139;SDS011;5624;49.388;11.350;2024-03-08T00:39:59;28.10;;;20.43;;
11139;SDS011;5624;49.388;11.350;2024-03-08T00:42:25;30.60;;;21.67;;
11139;SDS011;5624;49.388;11.350;2024-03-08T00:44:50;28.37;;;21.10;;
11139;SDS011;5624;49.388;11.350;2024-03-08T00:47:16;29.17;;;21.40;;
11139;SDS011;5624;49.388;11.350;2024-03-08T00:49:42;31.20;;;22.73;;
11139;SDS011;5624;49.388;11.350;2024-03-08T00:52:08;31.07;;;21.43;;
11139;SDS011;5624;49.388;11.350;2024-03-08T00:54:34;29.60;;;20.87;;
11139;SDS011;5624;49.388;11.350;2024-03-08T00:57:03;31.97;;;23.37;;
11139;SDS011;5624;49.388;11.350;2024-03-08T00:59:29;31.23;;;21.93;;
11139;SDS011;5624;49.388;11.350;2024-03-08T01:01:57;29.10;;;22.17;;
11139;SDS011;5624;49.388;11.350;2024-03-08T01:04:24;31.23;;;22.63;;
11139;SDS011;5624;49.388;11.350;2024-03-08T01:06:50;32.17;;;23.30;;
11139;SDS011;5624;49.388;11.350;2024-03-08T01:09:16;29.37;;;22.30;;
11139;SDS011;5624;49.388;11.350;2024-03-08T01:11:42;31.03;;;21.30;;
11139;SDS011;5624;49.388;11.350;2024-03-08T01:14:08;28.77;;;21.93;;
11139;SDS011;5624;49.388;11.350;2024-03-08T01:16:33;30.70;;;22.07;;
11139;SDS011;5624;49.388;11.350;2024-03-08T01:18:59;29.33;;;21.43;;
11139;SDS011;5624;49.388;11.350;2024-03-08T01:21:24;29.07;;;20.33;;
11139;SDS011;5624;49.388;11.350;2024-03-08T01:23:50;31.70;;;21.50;;
11139;SDS011;5624;49.388;11.350;2024-03-08T01:26:15;29.17;;;20.93;;
11139;SDS011;5624;49.388;11.350;2024-03-08T01:28:41;31.93;;;21.70;;
11139;SDS011;5624;49.388;11.350;2024-03-08T01:31:06;27.80;;;21.10;;
11139;SDS011;5624;49.388;11.350;2024-03-08T01:33:32;29.80;;;20.87;;
11139;SDS011;5624;49.388;11.350;2024-03-08T01:35:58;30.00;;;21.30;;
11139;SDS011;5624;49.388;11.350;2024-03-08T01:38:23;30.30;;;22.00;;
11139;SDS011;5624;49.388;11.350;2024-03-08T01:40:49;30.60;;;22.13;;
11139;SDS011;5624;49.388;11.350;2024-03-08T01:43:22;30.67;;;21.27;;
11139;SDS011;5624;49.388;11.350;2024-03-08T01:45:52;29.10;;;20.30;;
11139;SDS011;5624;49.388;11.350;2024-03-08T01:48:18;29.10;;;21.27;;
11139;SDS011;5624;49.388;11.350;2024-03-08T01:50:47;27.47;;;20.90;;
11139;SDS011;5624;49.388;11.350;2024-03-08T01:53:12;33.83;;;22.17;;
11139;SDS011;5624;49.388;11.350;2024-03-08T01:55:40;31.57;;;22.80;;
11139;SDS011;5624;49.388;11.350;2024-03-08T01:58:06;30.57;;;20.40;;
11139;SDS011;5624;49.388;11.350;2024-03-08T02:00:34;27.73;;;21.20;;
11139;SDS011;5624;49.388;11.350;2024-03-08T02:03:01;32.63;;;22.77;;
11139;SDS011;5624;49.388;11.350;2024-03-08T02:05:27;30.27;;;20.33;;
11139;SDS011;5624;49.388;11.350;2024-03-08T02:07:53;30.17;;;19.90;;
11139;SDS011;5624;49.388;11.350;2024-03-08T02:10:19;28.80;;;20.70;;
11139;SDS011;5624;49.388;11.350;2024-03-08T02:12:45;31.77;;;21.77;;
11139;SDS011;5624;49.388;11.350;2024-03-08T02:15:12;29.73;;;21.93;;
11139;SDS011;5624;49.388;11.350;2024-03-08T02:17:37;32.47;;;22.77;;
11139;SDS011;5624;49.388;11.350;2024-03-08T02:20:03;30.40;;;22.03;;
11139;SDS011;5624;49.388;11.350;2024-03-08T02:22:30;28.77;;;21.13;;
11139;SDS011;5624;49.388;11.350;2024-03-08T02:24:57;27.50;;;20.50;;
11139;SDS011;5624;49.388;11.350;2024-03-08T02:27:26;28.20;;;21.73;;
11139;SDS011;5624;49.388;11.350;2024-03-08T02:29:53;30.87;;;22.23;;
11139;SDS011;5624;49.388;11.350;2024-03-08T02:32:23;29.80;;;23.07;;
11139;SDS011;5624;49.388;11.350;2024-03-08T02:34:49;29.77;;;22.07;;
11139;SDS011;5624;49.388;11.350;2024-03-08T02:37:14;28.93;;;21.97;;
11139;SDS011;5624;49.388;11.350;2024-03-08T02:39:40;29.93;;;20.80;;
11139;SDS011;5624;49.388;11.350;2024-03-08T02:42:06;30.77;;;20.57;;
11139;SDS011;5624;49.388;11.350;2024-03-08T02:44:32;30.03;;;21.93;;
11139;SDS011;5624;49.388;11.350;2024-03-08T02:47:01;34.43;;;23.23;;
11139;SDS011;5624;49.388;11.350;2024-03-08T02:49:26;30.30;;;23.80;;
11139;SDS011;5624;49.388;11.350;2024-03-08T02:51:52;32.87;;;23.33;;
11139;SDS011;5624;49.388;11.350;2024-03-08T02:54:18;29.77;;;21.80;;
11139;SDS011;5624;49.388;11.350;2024-03-08T02:56:44;29.83;;;22.90;;
11139;SDS011;5624;49.388;11.350;2024-03-08T02:59:15;32.73;;;23.63;;
11139;SDS011;5624;49.388;11.350;2024-03-08T03:01:42;28.70;;;21.07;;
11139;SDS011;5624;49.388;11.350;2024-03-08T03:04:08;30.63;;;23.07;;
11139;SDS011;5624;49.388;11.350;2024-03-08T03:06:34;33.33;;;23.67;;
11139;SDS011;5624;49.388;11.350;2024-03-08T03:09:00;32.37;;;22.07;;
11139;SDS011;5624;49.388;11.350;2024-03-08T03:11:26;29.87;;;21.67;;
11139;SDS011;5624;49.388;11.350;2024-03-08T03:13:52;29.53;;;22.60;;
11139;SDS011;5624;49.388;11.350;2024-03-08T03:16:17;31.47;;;23.00;;
11139;SDS011;5624;49.388;11.350;2024-03-08T03:18:44;30.97;;;22.37;;
11139;SDS011;5624;49.388;11.350;2024-03-08T03:21:10;31.00;;;22.17;;
11139;SDS011;5624;49.388;11.350;2024-03-08T03:23:37;31.63;;;22.00;;
11139;SDS011;5624;49.388;11.350;2024-03-08T03:26:09;32.83;;;22.27;;
11139;SDS011;5624;49.388;11.350;2024-03-08T03:28:38;35.27;;;23.93;;
11139;SDS011;5624;49.388;11.350;2024-03-08T03:31:06;36.10;;;25.73;;
11139;SDS011;5624;49.388;11.350;2024-03-08T03:33:31;28.73;;;22.47;;
11139;SDS011;5624;49.388;11.350;2024-03-08T03:35:59;36.57;;;22.77;;
11139;SDS011;5624;49.388;11.350;2024-03-08T03:38:25;32.00;;;22.70;;
11139;SDS011;5624;49.388;11.350;2024-03-08T03:40:52;35.27;;;23.63;;
11139;SDS011;5624;49.388;11.350;2024-03-08T03:43:22;32.73;;;22.57;;
11139;SDS011;5624;49.388;11.350;2024-03-08T03:45:48;29.93;;;23.17;;
11139;SDS011;5624;49.388;11.350;2024-03-08T03:48:13;34.03;;;24.03;;
11139;SDS011;5624;49.388;11.350;2024-03-08T03:50:39;35.40;;;23.83;;
11139;SDS011;5624;49.388;11.350;2024-03-08T03:53:04;32.90;;;25.47;;
11139;SDS011;5624;49.388;11.350;2024-03-08T03:55:33;33.13;;;24.53;;
11139;SDS011;5624;49.388;11.350;2024-03-08T03:57:59;32.60;;;22.97;;
11139;SDS011;5624;49.388;11.350;2024-03-08T04:00:26;33.13;;;24.23;;
11139;SDS011;5624;49.388;11.350;2024-03-08T04:02:52;31.70;;;23.57;;
11139;SDS011;5624;49.388;11.350;2024-03-08T04:05:18;36.47;;;24.27;;
11139;SDS011;5624;49.388;11.350;2024-03-08T04:07:43;33.87;;;24.70;;
11139;SDS011;5624;49.388;11.350;2024-03-08T04:10:11;35.00;;;24.50;;
11139;SDS011;5624;49.388;11.350;2024-03-08T04:12:36;34.10;;;24.53;;
11139;SDS011;5624;49.388;11.350;2024-03-08T04:15:02;33.90;;;25.03;;
11139;SDS011;5624;49.388;11.350;2024-03-08T04:17:29;32.43;;;22.90;;
11139;SDS011;5624;49.388;11.350;2024-03-08T04:19:55;34.47;;;24.10;;
11139;SDS011;5624;49.388;11.350;2024-03-08T04:22:20;32.77;;;25.23;;
11139;SDS011;5624;49.388;11.350;2024-03-08T04:24:46;33.40;;;24.90;;
11139;SDS011;5624;49.388;11.350;2024-03-08T04:27:12;31.93;;;25.13;;
11139;SDS011;5624;49.388;11.350;2024-03-08T04:29:39;33.20;;;25.20;;
11139;SDS011;5624;49.388;11.350;2024-03-08T04:32:05;37.90;;;25.30;;
11139;SDS011;5624;49.388;11.350;2024-03-08T04:34:31;33.03;;;24.97;;
11139;SDS011;5624;49.388;11.350;2024-03-08T04:36:59;33.00;;;24.13;;
11139;SDS011;5624;49.388;11.350;2024-03-08T04:39:24;30.43;;;23.73;;
11139;SDS011;5624;49.388;11.350;2024-03-08T04:41:53;34.80;;;25.10;;
11139;SDS011;5624;49.388;11.350;2024-03-08T04:44:19;33.07;;;25.07;;
11139;SDS011;5624;49.388;11.350;2024-03-08T04:46:45;38.50;;;26.00;;
11139;SDS011;5624;49.388;11.350;2024-03-08T04:49:11;34.50;;;25.50;;
11139;SDS011;5624;49.388;11.350;2024-03-08T04:51:38;35.73;;;26.27;;
11139;SDS011;5624;49.388;11.350;2024-03-08T04:54:03;39.60;;;26.37;;
11139;SDS011;5624;49.388;11.350;2024-03-08T04:56:29;35.03;;;25.37;;
11139;SDS011;5624;49.388;11.350;2024-03-08T04:58:55;35.13;;;25.83;;
11139;SDS011;5624;49.388;11.350;2024-03-08T05:01:21;35.03;;;26.43;;
11139;SDS011;5624;49.388;11.350;2024-03-08T05:03:46;31.90;;;24.50;;
11139;SDS011;5624;49.388;11.350;2024-03-08T05:06:14;34.20;;;24.97;;
11139;SDS011;5624;49.388;11.350;2024-03-08T05:08:45;34.57;;;24.03;;
11139;SDS011;5624;49.388;11.350;2024-03-08T05:11:11;38.50;;;26.93;;
11139;SDS011;5624;49.388;11.350;2024-03-08T05:13:39;36.33;;;26.20;;
11139;SDS011;5624;49.388;11.350;2024-03-08T05:16:05;32.87;;;24.53;;
11139;SDS011;5624;49.388;11.350;2024-03-08T05:18:32;36.07;;;27.13;;
11139;SDS011;5624;49.388;11.350;2024-03-08T05:20:58;40.00;;;27.67;;
11139;SDS011;5624;49.388;11.350;2024-03-08T05:23:24;38.30;;;25.90;;
11139;SDS011;5624;49.388;11.350;2024-03-08T05:25:49;38.83;;;28.57;;
11139;SDS011;5624;49.388;11.350;2024-03-08T05:28:15;36.90;;;27.07;;
11139;SDS011;5624;49.388;11.350;2024-03-08T05:30:41;42.07;;;27.53;;
11139;SDS011;5624;49.388;11.350;2024-03-08T05:33:06;40.83;;;28.07;;
11139;SDS011;5624;49.388;11.350;2024-03-08T05:35:35;37.53;;;27.40;;
11139;SDS011;5624;49.388;11.350;2024-03-08T05:38:01;38.53;;;26.73;;
11139;SDS011;5624;49.388;11.350;2024-03-08T05:40:26;41.77;;;29.00;;
11139;SDS011;5624;49.388;11.350;2024-03-08T05:42:56;42.13;;;27.20;;
11139;SDS011;5624;49.388;11.350;2024-03-08T05:45:23;41.30;;;29.33;;
11139;SDS011;5624;49.388;11.350;2024-03-08T05:47:50;43.10;;;29.23;;
11139;SDS011;5624;49.388;11.350;2024-03-08T05:50:16;41.13;;;28.60;;
11139;SDS011;5624;49.388;11.350;2024-03-08T05:52:42;40.30;;;28.07;;
11139;SDS011;5624;49.388;11.350;2024-03-08T05:55:08;39.80;;;28.90;;
11139;SDS011;5624;49.388;11.350;2024-03-08T05:57:34;41.73;;;29.20;;
11139;SDS011;5624;49.388;11.350;2024-03-08T06:00:03;44.47;;;30.47;;
11139;SDS011;5624;49.388;11.350;2024-03-08T06:02:29;40.50;;;28.97;;
11139;SDS011;5624;49.388;11.350;2024-03-08T06:04:54;44.17;;;31.07;;
11139;SDS011;5624;49.388;11.350;2024-03-08T06:07:20;43.10;;;29.43;;
11139;SDS011;5624;49.388;11.350;2024-03-08T06:09:45;42.20;;;28.60;;
11139;SDS011;5624;49.388;11.350;2024-03-08T06:12:13;39.73;;;27.67;;
11139;SDS011;5624;49.388;11.350;2024-03-08T06:14:43;43.27;;;28.27;;
11139;SDS011;5624;49.388;11.350;2024-03-08T06:17:12;42.33;;;29.03;;
11139;SDS011;5624;49.388;11.350;2024-03-08T06:19:37;38.80;;;27.57;;
11139;SDS011;5624;49.388;11.350;2024-03-08T06:22:03;35.90;;;26.67;;
11139;SDS011;5624;49.388;11.350;2024-03-08T06:24:31;40.20;;;28.50;;
11139;SDS011;5624;49.388;11.350;2024-03-08T06:26:57;36.57;;;27.03;;
11139;SDS011;5624;49.388;11.350;2024-03-08T06:29:22;34.40;;;25.30;;
11139;SDS011;5624;49.388;11.350;2024-03-08T06:31:48;34.10;;;23.87;;
11139;SDS011;5624;49.388;11.350;2024-03-08T06:34:14;34.33;;;25.13;;
11139;SDS011;5624;49.388;11.350;2024-03-08T06:36:40;33.90;;;24.87;;
11139;SDS011;5624;49.388;11.350;2024-03-08T06:39:06;30.13;;;23.63;;
11139;SDS011;5624;49.388;11.350;2024-03-08T06:41:35;34.60;;;23.67;;
11139;SDS011;5624;49.388;11.350;2024-03-08T06:44:01;33.27;;;24.20;;
11139;SDS011;5624;49.388;11.350;2024-03-08T06:46:26;31.63;;;23.77;;
11139;SDS011;5624;49.388;11.350;2024-03-08T06:48:53;30.57;;;23.80;;
11139;SDS011;5624;49.388;11.350;2024-03-08T06:51:18;30.60;;;24.23;;
11139;SDS011;5624;49.388;11.350;2024-03-08T06:53:44;31.57;;;24.17;;
11139;SDS011;5624;49.388;11.350;2024-03-08T06:56:10;31.20;;;23.33;;
11139;SDS011;5624;49.388;11.350;2024-03-08T06:58:35;31.10;;;23.80;;
11139;SDS011;5624;49.388;11.350;2024-03-08T07:01:01;28.93;;;23.77;;
11139;SDS011;5624;49.388;11.350;2024-03-08T07:03:29;28.20;;;21.67;;
11139;SDS011;5624;49.388;11.350;2024-03-08T07:05:55;30.10;;;22.27;;
11139;SDS011;5624;49.388;11.350;2024-03-08T07:08:23;30.37;;;24.17;;
11139;SDS011;5624;49.388;11.350;2024-03-08T07:10:48;29.93;;;23.07;;
11139;SDS011;5624;49.388;11.350;2024-03-08T07:13:14;27.37;;;21.67;;
11139;SDS011;5624;49.388;11.350;2024-03-08T07:15:40;30.73;;;23.20;;
11139;SDS011;5624;49.388;11.350;2024-03-08T07:18:05;32.23;;;23.07;;
11139;SDS011;5624;49.388;11.350;2024-03-08T07:20:34;30.23;;;23.60;;
11139;SDS011;5624;49.388;11.350;2024-03-08T07:23:00;28.47;;;22.83;;
11139;SDS011;5624;49.388;11.350;2024-03-08T07:25:25;27.90;;;21.97;;
11139;SDS011;5624;49.388;11.350;2024-03-08T07:27:54;28.20;;;21.10;;
11139;SDS011;5624;49.388;11.350;2024-03-08T07:30:21;27.87;;;21.80;;
11139;SDS011;5624;49.388;11.350;2024-03-08T07:33:06;27.93;;;21.50;;
11139;SDS011;5624;49.388;11.350;2024-03-08T07:35:32;28.20;;;21.50;;
11139;SDS011;5624;49.388;11.350;2024-03-08T07:37:58;29.60;;;21.70;;
11139;SDS011;5624;49.388;11.350;2024-03-08T07:40:25;28.90;;;21.93;;
11139;SDS011;5624;49.388;11.350;2024-03-08T07:42:50;27.03;;;20.80;;
11139;SDS011;5624;49.388;11.350;2024-03-08T07:45:17;25.93;;;21.93;;
11139;SDS011;5624;49.388;11.350;2024-03-08T07:47:43;25.83;;;21.33;;
11139;SDS011;5624;49.388;11.350;2024-03-08T07:50:09;26.73;;;22.57;;
11139;SDS011;5624;49.388;11.350;2024-03-08T07:52:35;26.30;;;21.40;;
11139;SDS011;5624;49.388;11.350;2024-03-08T07:55:01;25.73;;;21.47;;
11139;SDS011;5624;49.388;11.350;2024-03-08T07:57:30;26.10;;;20.33;;
11139;SDS011;5624;49.388;11.350;2024-03-08T07:59:56;25.03;;;22.03;;
11139;SDS011;5624;49.388;11.350;2024-03-08T08:02:22;27.63;;;22.10;;
11139;SDS011;5624;49.388;11.350;2024-03-08T08:04:48;27.87;;;22.77;;
11139;SDS011;5624;49.388;11.350;2024-03-08T08:07:14;27.93;;;21.83;;
11139;SDS011;5624;49.388;11.350;2024-03-08T08:09:39;27.10;;;21.27;;
11139;SDS011;5624;49.388;11.350;2024-03-08T08:12:07;25.40;;;20.73;;
11139;SDS011;5624;49.388;11.350;2024-03-08T08:14:36;26.77;;;21.83;;
11139;SDS011;5624;49.388;11.350;2024-03-08T08:17:02;25.93;;;21.73;;
11139;SDS011;5624;49.388;11.350;2024-03-08T08:19:30;26.80;;;21.77;;
11139;SDS011;5624;49.388;11.350;2024-03-08T08:21:56;26.13;;;21.47;;
11139;SDS011;5624;49.388;11.350;2024-03-08T08:24:22;25.57;;;21.10;;
11139;SDS011;5624;49.388;11.350;2024-03-08T08:26:48;24.97;;;20.03;;
11139;SDS011;5624;49.388;11.350;2024-03-08T08:29:14;26.53;;;21.10;;
11139;SDS011;5624;49.388;11.350;2024-03-08T08:31:39;25.57;;;20.20;;
11139;SDS011;5624;49.388;11.350;2024-03-08T08:34:05;23.77;;;20.50;;
11139;SDS011;5624;49.388;11.350;2024-03-08T08:36:32;22.57;;;18.70;;
11139;SDS011;5624;49.388;11.350;2024-03-08T08:38:57;24.23;;;20.03;;
11139;SDS011;5624;49.388;11.350;2024-03-08T08:41:24;23.77;;;19.47;;
11139;SDS011;5624;49.388;11.350;2024-03-08T08:43:50;23.93;;;20.37;;
11139;SDS011;5624;49.388;11.350;2024-03-08T08:46:18;23.47;;;20.23;;
11139;SDS011;5624;49.388;11.350;2024-03-08T08:48:44;24.20;;;20.57;;
11139;SDS011;5624;49.388;11.350;2024-03-08T08:51:10;23.93;;;20.17;;
11139;SDS011;5624;49.388;11.350;2024-03-08T08:53:40;23.10;;;20.60;;
11139;SDS011;5624;49.388;11.350;2024-03-08T08:56:08;21.47;;;18.93;;
11139;SDS011;5624;49.388;11.350;2024-03-08T08:58:33;22.00;;;19.37;;
11139;SDS011;5624;49.388;11.350;2024-03-08T09:00:59;22.37;;;19.97;;
11139;SDS011;5624;49.388;11.350;2024-03-08T09:03:25;23.70;;;20.17;;
11139;SDS011;5624;49.388;11.350;2024-03-08T09:05:52;21.50;;;18.80;;
11139;SDS011;5624;49.388;11.350;2024-03-08T09:08:17;22.50;;;17.43;;
11139;SDS011;5624;49.388;11.350;2024-03-08T09:10:43;22.60;;;18.90;;
11139;SDS011;5624;49.388;11.350;2024-03-08T09:13:09;22.10;;;18.87;;
11139;SDS011;5624;49.388;11.350;2024-03-08T09:15:36;20.80;;;17.27;;
11139;SDS011;5624;49.388;11.350;2024-03-08T09:18:05;23.07;;;19.50;;
11139;SDS011;5624;49.388;11.350;2024-03-08T09:20:31;19.83;;;17.73;;
11139;SDS011;5624;49.388;11.350;2024-03-08T09:22:57;20.47;;;17.67;;
11139;SDS011;5624;49.388;11.350;2024-03-08T09:25:22;21.23;;;17.80;;
11139;SDS011;5624;49.388;11.350;2024-03-08T09:27:48;25.97;;;19.03;;
11139;SDS011;5624;49.388;11.350;2024-03-08T09:30:14;22.27;;;17.73;;
11139;SDS011;5624;49.388;11.350;2024-03-08T09:32:40;19.73;;;17.63;;
11139;SDS011;5624;49.388;11.350;2024-03-08T09:35:06;19.97;;;16.93;;
11139;SDS011;5624;49.388;11.350;2024-03-08T09:37:33;23.37;;;18.10;;
11139;SDS011;5624;49.388;11.350;2024-03-08T09:39:59;22.60;;;17.90;;
11139;SDS011;5624;49.388;11.350;2024-03-08T09:42:25;20.97;;;17.83;;
11139;SDS011;5624;49.388;11.350;2024-03-08T09:44:51;21.47;;;18.50;;
11139;SDS011;5624;49.388;11.350;2024-03-08T09:47:17;21.70;;;16.97;;
11139;SDS011;5624;49.388;11.350;2024-03-08T09:49:43;20.07;;;16.80;;
11139;SDS011;5624;49.388;11.350;2024-03-08T09:52:08;18.23;;;15.30;;
11139;SDS011;5624;49.388;11.350;2024-03-08T09:54:37;17.90;;;15.60;;
11139;SDS011;5624;49.388;11.350;2024-03-08T09:57:04;19.73;;;15.93;;
11139;SDS011;5624;49.388;11.350;2024-03-08T09:59:33;17.67;;;14.53;;
11139;SDS011;5624;49.388;11.350;2024-03-08T10:02:01;20.43;;;14.87;;
11139;SDS011;5624;49.388;11.350;2024-03-08T10:04:28;20.10;;;15.20;;
11139;SDS011;5624;49.388;11.350;2024-03-08T10:06:57;17.73;;;14.67;;
11139;SDS011;5624;49.388;11.350;2024-03-08T10:09:24;16.63;;;14.67;;
11139;SDS011;5624;49.388;11.350;2024-03-08T10:11:53;16.70;;;14.63;;
11139;SDS011;5624;49.388;11.350;2024-03-08T10:14:24;16.50;;;14.73;;
11139;SDS011;5624;49.388;11.350;2024-03-08T10:16:51;15.80;;;13.63;;
11139;SDS011;5624;49.388;11.350;2024-03-08T10:19:17;16.67;;;12.97;;
11139;SDS011;5624;49.388;11.350;2024-03-08T10:21:52;15.90;;;13.70;;
11139;SDS011;5624;49.388;11.350;2024-03-08T10:24:22;15.00;;;13.00;;
11139;SDS011;5624;49.388;11.350;2024-03-08T10:26:51;14.23;;;12.57;;
11139;SDS011;5624;49.388;11.350;2024-03-08T10:29:30;14.73;;;13.17;;
11139;SDS011;5624;49.388;11.350;2024-03-08T10:31:57;14.73;;;12.70;;
11139;SDS011;5624;49.388;11.350;2024-03-08T10:34:23;16.40;;;13.60;;
11139;SDS011;5624;49.388;11.350;2024-03-08T10:36:49;16.23;;;12.77;;
11139;SDS011;5624;49.388;11.350;2024-03-08T10:39:20;15.90;;;12.03;;
11139;SDS011;5624;49.388;11.350;2024-03-08T10:41:50;14.90;;;12.93;;
11139;SDS011;5624;49.388;11.350;2024-03-08T10:44:32;14.97;;;11.83;;
11139;SDS011;5624;49.388;11.350;2024-03-08T10:50:28;14.57;;;12.60;;
11139;SDS011;5624;49.388;11.350;2024-03-08T10:52:47;14.43;;;11.57;;
11139;SDS011;5624;49.388;11.350;2024-03-08T10:55:15;14.43;;;11.30;;
11139;SDS011;5624;49.388;11.350;2024-03-08T10:57:42;14.53;;;11.20;;
11139;SDS011;5624;49.388;11.350;2024-03-08T11:00:08;13.47;;;10.67;;
11139;SDS011;5624;49.388;11.350;2024-03-08T11:02:36;13.73;;;11.33;;
11139;SDS011;5624;49.388;11.350;2024-03-08T11:05:03;14.63;;;11.60;;
11139;SDS011;5624;49.388;11.350;2024-03-08T11:07:30;13.80;;;11.77;;
11139;SDS011;5624;49.388;11.350;2024-03-08T11:09:59;13.47;;;11.23;;
11139;SDS011;5624;49.388;11.350;2024-03-08T11:12:35;14.43;;;11.50;;
11139;SDS011;5624;49.388;11.350;2024-03-08T11:15:02;14.17;;;12.17;;
11139;SDS011;5624;49.388;11.350;2024-03-08T11:20:15;14.37;;;10.63;;
11139;SDS011;5624;49.388;11.350;2024-03-08T11:22:48;12.07;;;10.80;;
11139;SDS011;5624;49.388;11.350;2024-03-08T11:30:33;12.67;;;10.73;;
11139;SDS011;5624;49.388;11.350;2024-03-08T11:33:00;12.40;;;10.73;;
11139;SDS011;5624;49.388;11.350;2024-03-08T11:35:28;14.20;;;11.60;;
11139;SDS011;5624;49.388;11.350;2024-03-08T11:37:54;10.57;;;9.10;;
11139;SDS011;5624;49.388;11.350;2024-03-08T11:40:22;14.27;;;11.20;;
11139;SDS011;5624;49.388;11.350;2024-03-08T11:42:48;12.20;;;10.67;;
11139;SDS011;5624;49.388;11.350;2024-03-08T11:45:18;14.50;;;10.90;;
11139;SDS011;5624;49.388;11.350;2024-03-08T11:47:46;12.00;;;10.17;;
11139;SDS011;5624;49.388;11.350;2024-03-08T11:50:12;12.53;;;10.27;;
11139;SDS011;5624;49.388;11.350;2024-03-08T11:52:39;11.93;;;10.07;;
11139;SDS011;5624;49.388;11.350;2024-03-08T11:55:05;11.73;;;9.90;;
11139;SDS011;5624;49.388;11.350;2024-03-08T11:57:31;10.90;;;9.73;;
11139;SDS011;5624;49.388;11.350;2024-03-08T12:00:00;12.50;;;9.73;;
11139;SDS011;5624;49.388;11.350;2024-03-08T12:02:31;11.43;;;9.97;;
11139;SDS011;5624;49.388;11.350;2024-03-08T12:05:02;10.87;;;9.77;;
11139;SDS011;5624;49.388;11.350;2024-03-08T12:07:29;11.57;;;9.80;;
11139;SDS011;5624;49.388;11.350;2024-03-08T12:10:30;11.37;;;9.47;;
11139;SDS011;5624;49.388;11.350;2024-03-08T12:12:51;11.67;;;9.20;;
11139;SDS011;5624;49.388;11.350;2024-03-08T12:15:18;11.90;;;10.00;;
11139;SDS011;5624;49.388;11.350;2024-03-08T12:17:45;11.07;;;9.43;;
11139;SDS011;5624;49.388;11.350;2024-03-08T12:20:20;10.47;;;8.47;;
11139;SDS011;5624;49.388;11.350;2024-03-08T12:22:56;12.20;;;8.80;;
11139;SDS011;5624;49.388;11.350;2024-03-08T12:25:22;10.53;;;8.30;;
11139;SDS011;5624;49.388;11.350;2024-03-08T12:27:51;10.60;;;8.40;;
11139;SDS011;5624;49.388;11.350;2024-03-08T12:30:22;9.70;;;8.33;;
11139;SDS011;5624;49.388;11.350;2024-03-08T12:32:56;10.47;;;8.33;;
11139;SDS011;5624;49.388;11.350;2024-03-08T12:35:27;11.30;;;9.07;;
11139;SDS011;5624;49.388;11.350;2024-03-08T12:37:55;11.90;;;8.97;;
11139;SDS011;5624;49.388;11.350;2024-03-08T12:40:26;12.47;;;9.70;;
11139;SDS011;5624;49.388;11.350;2024-03-08T12:42:53;11.23;;;9.17;;
11139;SDS011;5624;49.388;11.350;2024-03-08T12:45:20;10.47;;;8.77;;
11139;SDS011;5624;49.388;11.350;2024-03-08T12:47:49;10.10;;;8.00;;
11139;SDS011;5624;49.388;11.350;2024-03-08T12:50:18;9.83;;;7.93;;
11139;SDS011;5624;49.388;11.350;2024-03-08T12:52:45;11.17;;;8.90;;
11139;SDS011;5624;49.388;11.350;2024-03-08T12:55:11;11.73;;;8.93;;
11139;SDS011;5624;49.388;11.350;2024-03-08T12:57:37;12.77;;;9.90;;
11139;SDS011;5624;49.388;11.350;2024-03-08T13:00:04;12.53;;;10.50;;
11139;SDS011;5624;49.388;11.350;2024-03-08T13:02:31;12.40;;;10.03;;
11139;SDS011;5624;49.388;11.350;2024-03-08T13:04:57;12.57;;;10.17;;
11139;SDS011;5624;49.388;11.350;2024-03-08T13:07:24;12.57;;;10.30;;
11139;SDS011;5624;49.388;11.350;2024-03-08T13:09:53;13.93;;;10.77;;
11139;SDS011;5624;49.388;11.350;2024-03-08T13:12:19;15.23;;;11.40;;
11139;SDS011;5624;49.388;11.350;2024-03-08T13:14:46;14.07;;;11.67;;
11139;SDS011;5624;49.388;11.350;2024-03-08T13:17:12;13.13;;;11.37;;
11139;SDS011;5624;49.388;11.350;2024-03-08T13:19:43;14.33;;;12.33;;
11139;SDS011;5624;49.388;11.350;2024-03-08T13:22:09;13.10;;;11.03;;
11139;SDS011;5624;49.388;11.350;2024-03-08T13:24:38;14.53;;;12.03;;
11139;SDS011;5624;49.388;11.350;2024-03-08T13:27:05;15.27;;;11.57;;
11139;SDS011;5624;49.388;11.350;2024-03-08T13:29:41;16.23;;;12.00;;
11139;SDS011;5624;49.388;11.350;2024-03-08T13:32:08;13.20;;;11.23;;
11139;SDS011;5624;49.388;11.350;2024-03-08T13:34:36;12.90;;;10.83;;
11139;SDS011;5624;49.388;11.350;2024-03-08T13:37:05;13.67;;;11.53;;
11139;SDS011;5624;49.388;11.350;2024-03-08T13:39:31;12.97;;;11.30;;
11139;SDS011;5624;49.388;11.350;2024-03-08T13:42:05;12.53;;;11.00;;
11139;SDS011;5624;49.388;11.350;2024-03-08T13:44:34;13.27;;;11.70;;
11139;SDS011;5624;49.388;11.350;2024-03-08T13:47:01;13.60;;;11.17;;
11139;SDS011;5624;49.388;11.350;2024-03-08T13:49:29;12.53;;;10.93;;
11139;SDS011;5624;49.388;11.350;2024-03-08T13:51:55;11.73;;;10.33;;
11139;SDS011;5624;49.388;11.350;2024-03-08T13:54:20;12.50;;;10.00;;
11139;SDS011;5624;49.388;11.350;2024-03-08T13:56:46;11.57;;;9.93;;
11139;SDS011;5624;49.388;11.350;2024-03-08T13:59:12;13.23;;;10.13;;
11139;SDS011;5624;49.388;11.350;2024-03-08T14:01:38;11.13;;;9.90;;
11139;SDS011;5624;49.388;11.350;2024-03-08T14:04:03;13.07;;;10.73;;
11139;SDS011;5624;49.388;11.350;2024-03-08T14:06:29;11.47;;;9.97;;
11139;SDS011;5624;49.388;11.350;2024-03-08T14:08:55;12.00;;;10.23;;
11139;SDS011;5624;49.388;11.350;2024-03-08T14:11:22;11.77;;;9.70;;
11139;SDS011;5624;49.388;11.350;2024-03-08T14:13:49;12.13;;;10.03;;
11139;SDS011;5624;49.388;11.350;2024-03-08T14:16:14;11.80;;;10.43;;
11139;SDS011;5624;49.388;11.350;2024-03-08T14:18:40;12.40;;;10.20;;
11139;SDS011;5624;49.388;11.350;2024-03-08T14:21:07;11.50;;;10.10;;
11139;SDS011;5624;49.388;11.350;2024-03-08T14:23:36;12.97;;;10.10;;
11139;SDS011;5624;49.388;11.350;2024-03-08T14:26:02;12.97;;;9.87;;
11139;SDS011;5624;49.388;11.350;2024-03-08T14:28:29;11.93;;;10.27;;
11139;SDS011;5624;49.388;11.350;2024-03-08T14:30:54;11.97;;;9.97;;
11139;SDS011;5624;49.388;11.350;2024-03-08T14:33:20;12.03;;;10.73;;